sensor_id;sensor_type;location;lat;lon;timestamp;pressure;altitude;pressure_sealevel;temperature;humidity
11017;BME280;54687;50.800;6.772;2022-08-30T00:00:53;60740.75;;;-144.06;45.01
11017;BME280;54687;50.800;6.772;2022-08-30T00:03:31;60744.94;;;-144.06;45.12
11017;BME280;54687;50.800;6.772;2022-08-30T00:05:58;60757.53;;;-144.06;45.23
11017;BME280;54687;50.800;6.772;2022-08-30T00:08:25;60726.09;;;-144.06;45.29
11017;BME280;54687;50.800;6.772;2022-08-30T00:10:53;60778.50;;;-144.06;45.44
11017;BME280;54687;50.800;6.772;2022-08-30T00:13:21;60728.19;;;-144.06;45.52
11017;BME280;54687;50.800;6.772;2022-08-30T00:15:48;60791.06;;;-144.06;45.72
11017;BME280;54687;50.800;6.772;2022-08-30T00:18:14;60765.91;;;-144.06;45.94
11017;BME280;54687;50.800;6.772;2022-08-30T00:20:43;60765.91;;;-144.06;46.09
11017;BME280;54687;50.800;6.772;2022-08-30T00:23:10;60772.19;;;-144.06;46.19
11017;BME280;54687;50.800;6.772;2022-08-30T00:25:37;60749.16;;;-144.06;46.33
11017;BME280;54687;50.800;6.772;2022-08-30T00:28:06;60774.28;;;-144.06;46.38
11017;BME280;54687;50.800;6.772;2022-08-30T00:30:34;60755.44;;;-144.06;46.63
11017;BME280;54687;50.800;6.772;2022-08-30T00:33:01;60770.09;;;-144.06;46.59
11017;BME280;54687;50.800;6.772;2022-08-30T00:35:28;60780.59;;;-144.06;46.60
11017;BME280;54687;50.800;6.772;2022-08-30T00:37:54;60761.72;;;-144.06;46.63
11017;BME280;54687;50.800;6.772;2022-08-30T00:40:22;60719.81;;;-144.06;46.57
11017;BME280;54687;50.800;6.772;2022-08-30T00:42:49;60770.09;;;-144.06;46.48
11017;BME280;54687;50.800;6.772;2022-08-30T00:45:21;60803.66;;;-144.06;46.45
11017;BME280;54687;50.800;6.772;2022-08-30T00:47:48;60761.72;;;-144.06;46.52
11017;BME280;54687;50.800;6.772;2022-08-30T00:50:18;60786.88;;;-144.06;46.44
11017;BME280;54687;50.800;6.772;2022-08-30T00:52:48;60784.78;;;-144.06;46.50
11017;BME280;54687;50.800;6.772;2022-08-30T00:55:16;60757.53;;;-144.06;46.61
11017;BME280;54687;50.800;6.772;2022-08-30T00:57:45;60807.84;;;-144.06;46.65
11017;BME280;54687;50.800;6.772;2022-08-30T01:00:15;60795.25;;;-144.06;46.81
11017;BME280;54687;50.800;6.772;2022-08-30T01:02:43;60763.81;;;-144.06;46.91
11017;BME280;54687;50.800;6.772;2022-08-30T01:05:11;60774.28;;;-144.06;46.87
11017;BME280;54687;50.800;6.772;2022-08-30T01:07:39;60788.97;;;-144.06;47.13
11017;BME280;54687;50.800;6.772;2022-08-30T01:10:09;60761.72;;;-144.06;47.07
11017;BME280;54687;50.800;6.772;2022-08-30T01:12:38;60791.06;;;-144.06;46.83
11017;BME280;54687;50.800;6.772;2022-08-30T01:15:06;60774.28;;;-144.06;46.88
11017;BME280;54687;50.800;6.772;2022-08-30T01:17:34;60803.66;;;-144.06;46.77
11017;BME280;54687;50.800;6.772;2022-08-30T01:20:05;60812.03;;;-144.06;46.66
11017;BME280;54687;50.800;6.772;2022-08-30T01:22:37;60793.16;;;-144.06;46.85
11017;BME280;54687;50.800;6.772;2022-08-30T01:25:09;60761.72;;;-144.06;46.78
11017;BME280;54687;50.800;6.772;2022-08-30T01:27:38;60793.16;;;-144.06;46.62
11017;BME280;54687;50.800;6.772;2022-08-30T01:30:08;60768.00;;;-144.06;46.52
11017;BME280;54687;50.800;6.772;2022-08-30T01:32:39;60778.50;;;-144.06;46.51
11017;BME280;54687;50.800;6.772;2022-08-30T01:35:06;60795.25;;;-144.06;46.33
11017;BME280;54687;50.800;6.772;2022-08-30T01:37:34;60770.09;;;-144.06;46.36
11017;BME280;54687;50.800;6.772;2022-08-30T01:40:03;60797.34;;;-144.06;46.16
11017;BME280;54687;50.800;6.772;2022-08-30T01:42:32;60749.16;;;-144.06;46.18
11017;BME280;54687;50.800;6.772;2022-08-30T01:44:58;60765.91;;;-144.06;46.15
11017;BME280;54687;50.800;6.772;2022-08-30T01:47:25;60740.75;;;-144.06;46.35
11017;BME280;54687;50.800;6.772;2022-08-30T01:49:52;60788.97;;;-144.06;46.55
11017;BME280;54687;50.800;6.772;2022-08-30T01:52:19;60778.50;;;-144.06;46.63
11017;BME280;54687;50.800;6.772;2022-08-30T01:54:46;60793.16;;;-144.06;46.60
11017;BME280;54687;50.800;6.772;2022-08-30T01:57:14;60786.88;;;-144.06;46.57
11017;BME280;54687;50.800;6.772;2022-08-30T01:59:43;60770.09;;;-144.06;46.66
11017;BME280;54687;50.800;6.772;2022-08-30T02:02:12;60782.69;;;-144.06;46.51
11017;BME280;54687;50.800;6.772;2022-08-30T02:04:40;60765.91;;;-144.06;46.69
11017;BME280;54687;50.800;6.772;2022-08-30T02:07:06;60765.91;;;-144.06;46.69
11017;BME280;54687;50.800;6.772;2022-08-30T02:09:33;60788.97;;;-144.06;46.87
11017;BME280;54687;50.800;6.772;2022-08-30T02:12:02;60759.63;;;-144.06;46.63
11017;BME280;54687;50.800;6.772;2022-08-30T02:14:30;60761.72;;;-144.06;46.33
11017;BME280;54687;50.800;6.772;2022-08-30T02:16:58;60786.88;;;-144.06;46.31
11017;BME280;54687;50.800;6.772;2022-08-30T02:19:26;60782.69;;;-144.06;46.36
11017;BME280;54687;50.800;6.772;2022-08-30T02:21:54;60791.06;;;-144.06;46.46
11017;BME280;54687;50.800;6.772;2022-08-30T02:24:21;60782.69;;;-144.06;46.46
11017;BME280;54687;50.800;6.772;2022-08-30T02:26:48;60786.88;;;-144.06;46.49
11017;BME280;54687;50.800;6.772;2022-08-30T02:29:16;60753.34;;;-144.06;46.45
11017;BME280;54687;50.800;6.772;2022-08-30T02:31:43;60801.53;;;-144.06;46.40
11017;BME280;54687;50.800;6.772;2022-08-30T02:34:11;60765.91;;;-144.06;46.57
11017;BME280;54687;50.800;6.772;2022-08-30T02:36:38;60770.09;;;-144.06;46.61
11017;BME280;54687;50.800;6.772;2022-08-30T02:39:06;60786.88;;;-144.06;46.48
11017;BME280;54687;50.800;6.772;2022-08-30T02:41:33;60795.25;;;-144.06;46.58
11017;BME280;54687;50.800;6.772;2022-08-30T02:44:00;60807.84;;;-144.06;46.60
11017;BME280;54687;50.800;6.772;2022-08-30T02:46:27;60770.09;;;-144.06;46.62
11017;BME280;54687;50.800;6.772;2022-08-30T02:48:54;60830.88;;;-144.06;46.59
11017;BME280;54687;50.800;6.772;2022-08-30T02:51:22;60765.91;;;-144.06;46.55
11017;BME280;54687;50.800;6.772;2022-08-30T02:53:50;60757.53;;;-144.06;46.60
11017;BME280;54687;50.800;6.772;2022-08-30T02:56:17;60774.28;;;-144.06;46.60
11017;BME280;54687;50.800;6.772;2022-08-30T02:58:43;60791.06;;;-144.06;46.70
11017;BME280;54687;50.800;6.772;2022-08-30T03:01:12;60778.50;;;-144.06;46.75
11017;BME280;54687;50.800;6.772;2022-08-30T03:03:40;60795.25;;;-144.06;46.82
11017;BME280;54687;50.800;6.772;2022-08-30T03:06:07;60816.22;;;-144.06;46.91
11017;BME280;54687;50.800;6.772;2022-08-30T03:08:36;60812.03;;;-144.06;46.95
11017;BME280;54687;50.800;6.772;2022-08-30T03:11:03;60828.78;;;-144.06;47.04
11017;BME280;54687;50.800;6.772;2022-08-30T03:13:30;60768.00;;;-144.06;46.97
11017;BME280;54687;50.800;6.772;2022-08-30T03:15:57;60805.75;;;-144.06;47.13
11017;BME280;54687;50.800;6.772;2022-08-30T03:18:24;60833.00;;;-144.06;47.12
11017;BME280;54687;50.800;6.772;2022-08-30T03:20:51;60799.44;;;-144.06;47.09
11017;BME280;54687;50.800;6.772;2022-08-30T03:23:18;60818.31;;;-144.06;47.17
11017;BME280;54687;50.800;6.772;2022-08-30T03:25:46;60807.84;;;-144.06;47.21
11017;BME280;54687;50.800;6.772;2022-08-30T03:28:12;60793.16;;;-144.06;47.16
11017;BME280;54687;50.800;6.772;2022-08-30T03:30:39;60788.97;;;-144.06;47.30
11017;BME280;54687;50.800;6.772;2022-08-30T03:33:06;60805.75;;;-144.06;47.19
11017;BME280;54687;50.800;6.772;2022-08-30T03:35:33;60816.22;;;-144.06;47.25
11017;BME280;54687;50.800;6.772;2022-08-30T03:37:59;60780.59;;;-144.06;47.23
11017;BME280;54687;50.800;6.772;2022-08-30T03:40:26;60795.25;;;-144.06;47.07
11017;BME280;54687;50.800;6.772;2022-08-30T03:42:54;60795.25;;;-144.06;47.13
11017;BME280;54687;50.800;6.772;2022-08-30T03:45:21;60774.28;;;-144.06;47.19
11017;BME280;54687;50.800;6.772;2022-08-30T03:47:48;60782.69;;;-144.06;47.17
11017;BME280;54687;50.800;6.772;2022-08-30T03:50:15;60786.88;;;-144.06;47.14
11017;BME280;54687;50.800;6.772;2022-08-30T03:52:42;60763.81;;;-144.06;47.30
11017;BME280;54687;50.800;6.772;2022-08-30T03:55:10;60841.38;;;-144.06;47.42
11017;BME280;54687;50.800;6.772;2022-08-30T03:57:37;60824.59;;;-144.06;47.50
11017;BME280;54687;50.800;6.772;2022-08-30T04:00:08;60816.22;;;-144.06;47.40
11017;BME280;54687;50.800;6.772;2022-08-30T04:02:36;60801.53;;;-144.06;47.58
11017;BME280;54687;50.800;6.772;2022-08-30T04:05:04;60820.41;;;-144.06;47.66
11017;BME280;54687;50.800;6.772;2022-08-30T04:07:31;60799.44;;;-144.06;47.73
11017;BME280;54687;50.800;6.772;2022-08-30T04:09:58;60824.59;;;-144.06;47.74
11017;BME280;54687;50.800;6.772;2022-08-30T04:12:25;60770.09;;;-144.06;47.67
11017;BME280;54687;50.800;6.772;2022-08-30T04:14:52;60774.28;;;-144.06;47.80
11017;BME280;54687;50.800;6.772;2022-08-30T04:17:20;60809.94;;;-144.06;47.61
11017;BME280;54687;50.800;6.772;2022-08-30T04:19:46;60822.50;;;-144.06;47.77
11017;BME280;54687;50.800;6.772;2022-08-30T04:22:13;60820.41;;;-144.06;47.72
11017;BME280;54687;50.800;6.772;2022-08-30T04:24:40;60799.44;;;-144.06;47.78
11017;BME280;54687;50.800;6.772;2022-08-30T04:27:07;60788.97;;;-144.06;47.75
11017;BME280;54687;50.800;6.772;2022-08-30T04:29:35;60824.59;;;-144.06;47.87
11017;BME280;54687;50.800;6.772;2022-08-30T04:32:02;60824.59;;;-144.06;47.85
11017;BME280;54687;50.800;6.772;2022-08-30T04:34:30;60814.13;;;-144.06;47.88
11017;BME280;54687;50.800;6.772;2022-08-30T04:36:57;60801.53;;;-144.06;47.81
11017;BME280;54687;50.800;6.772;2022-08-30T04:39:24;60807.84;;;-144.06;47.72
11017;BME280;54687;50.800;6.772;2022-08-30T04:41:51;60795.25;;;-144.06;47.81
11017;BME280;54687;50.800;6.772;2022-08-30T04:44:18;60782.69;;;-144.06;48.01
11017;BME280;54687;50.800;6.772;2022-08-30T04:46:45;60791.06;;;-144.06;47.97
11017;BME280;54687;50.800;6.772;2022-08-30T04:49:12;60805.75;;;-144.06;47.85
11017;BME280;54687;50.800;6.772;2022-08-30T04:51:40;60820.41;;;-144.06;47.95
11017;BME280;54687;50.800;6.772;2022-08-30T04:54:07;60780.59;;;-144.06;48.02
11017;BME280;54687;50.800;6.772;2022-08-30T04:56:34;60816.22;;;-144.06;47.96
11017;BME280;54687;50.800;6.772;2022-08-30T04:59:03;60788.97;;;-144.06;47.91
11017;BME280;54687;50.800;6.772;2022-08-30T05:01:31;60791.06;;;-144.06;47.85
11017;BME280;54687;50.800;6.772;2022-08-30T05:03:58;60799.44;;;-144.06;47.79
11017;BME280;54687;50.800;6.772;2022-08-30T05:06:27;60807.84;;;-144.06;47.65
11017;BME280;54687;50.800;6.772;2022-08-30T05:08:57;60803.66;;;-144.06;47.75
11017;BME280;54687;50.800;6.772;2022-08-30T05:11:25;60812.03;;;-144.06;47.63
11017;BME280;54687;50.800;6.772;2022-08-30T05:13:52;60791.06;;;-144.06;47.78
11017;BME280;54687;50.800;6.772;2022-08-30T05:16:19;60795.25;;;-144.06;47.69
11017;BME280;54687;50.800;6.772;2022-08-30T05:18:47;60814.13;;;-144.06;47.60
11017;BME280;54687;50.800;6.772;2022-08-30T05:21:16;60812.03;;;-144.06;47.55
11017;BME280;54687;50.800;6.772;2022-08-30T05:23:43;60833.00;;;-144.06;47.56
11017;BME280;54687;50.800;6.772;2022-08-30T05:26:14;60807.84;;;-144.06;47.57
11017;BME280;54687;50.800;6.772;2022-08-30T05:28:42;60828.78;;;-144.06;47.51
11017;BME280;54687;50.800;6.772;2022-08-30T05:31:15;60784.78;;;-144.06;47.48
11017;BME280;54687;50.800;6.772;2022-08-30T05:33:42;60824.59;;;-144.06;47.28
11017;BME280;54687;50.800;6.772;2022-08-30T05:36:10;60770.09;;;-144.06;46.95
11017;BME280;54687;50.800;6.772;2022-08-30T05:38:38;60809.94;;;-144.06;46.94
11017;BME280;54687;50.800;6.772;2022-08-30T05:41:05;60765.91;;;-144.06;46.64
11017;BME280;54687;50.800;6.772;2022-08-30T05:43:34;60772.19;;;-144.06;46.31
11017;BME280;54687;50.800;6.772;2022-08-30T05:46:03;60807.84;;;-144.06;46.28
11017;BME280;54687;50.800;6.772;2022-08-30T05:48:31;60782.69;;;-144.06;46.15
11017;BME280;54687;50.800;6.772;2022-08-30T05:51:03;60765.91;;;-144.06;46.14
11017;BME280;54687;50.800;6.772;2022-08-30T05:53:30;60772.19;;;-144.06;45.84
11017;BME280;54687;50.800;6.772;2022-08-30T05:55:56;60776.41;;;-144.06;45.89
11017;BME280;54687;50.800;6.772;2022-08-30T05:58:23;60774.28;;;-144.06;45.94
11017;BME280;54687;50.800;6.772;2022-08-30T06:00:51;60772.19;;;-144.06;45.83
11017;BME280;54687;50.800;6.772;2022-08-30T06:03:18;60757.53;;;-144.06;45.58
11017;BME280;54687;50.800;6.772;2022-08-30T06:05:45;60780.59;;;-144.06;45.75
11017;BME280;54687;50.800;6.772;2022-08-30T06:08:11;60772.19;;;-144.06;45.89
11017;BME280;54687;50.800;6.772;2022-08-30T06:10:38;60795.25;;;-144.06;45.97
11017;BME280;54687;50.800;6.772;2022-08-30T06:13:05;60791.06;;;-144.06;45.88
11017;BME280;54687;50.800;6.772;2022-08-30T06:15:31;60742.84;;;-144.06;45.92
11017;BME280;54687;50.800;6.772;2022-08-30T06:17:59;60782.69;;;-144.06;46.00
11017;BME280;54687;50.800;6.772;2022-08-30T06:20:26;60788.97;;;-144.06;46.00
11017;BME280;54687;50.800;6.772;2022-08-30T06:22:53;60765.91;;;-144.06;45.99
11017;BME280;54687;50.800;6.772;2022-08-30T06:25:19;60797.34;;;-144.06;45.78
11017;BME280;54687;50.800;6.772;2022-08-30T06:27:46;60788.97;;;-144.06;46.05
11017;BME280;54687;50.800;6.772;2022-08-30T06:30:13;60761.72;;;-144.06;45.67
11017;BME280;54687;50.800;6.772;2022-08-30T06:32:40;60763.81;;;-144.06;45.57
11017;BME280;54687;50.800;6.772;2022-08-30T06:35:09;60786.88;;;-144.06;45.54
11017;BME280;54687;50.800;6.772;2022-08-30T06:37:35;60761.72;;;-144.06;45.20
11017;BME280;54687;50.800;6.772;2022-08-30T06:40:03;60749.16;;;-144.06;45.25
11017;BME280;54687;50.800;6.772;2022-08-30T06:42:32;60753.34;;;-144.06;45.10
11017;BME280;54687;50.800;6.772;2022-08-30T06:44:59;60761.72;;;-144.06;44.82
11017;BME280;54687;50.800;6.772;2022-08-30T06:47:27;60755.44;;;-144.06;44.62
11017;BME280;54687;50.800;6.772;2022-08-30T06:49:54;60711.41;;;-144.06;44.42
11017;BME280;54687;50.800;6.772;2022-08-30T06:52:24;60742.84;;;-144.06;44.29
11017;BME280;54687;50.800;6.772;2022-08-30T06:54:50;60728.19;;;-144.06;44.08
11017;BME280;54687;50.800;6.772;2022-08-30T06:57:17;60728.19;;;-144.06;44.32
11017;BME280;54687;50.800;6.772;2022-08-30T06:59:44;60753.34;;;-144.06;44.22
11017;BME280;54687;50.800;6.772;2022-08-30T07:02:11;60753.34;;;-144.06;44.27
11017;BME280;54687;50.800;6.772;2022-08-30T07:04:38;60770.09;;;-144.06;43.88
11017;BME280;54687;50.800;6.772;2022-08-30T07:07:04;60707.22;;;-144.06;43.58
11017;BME280;54687;50.800;6.772;2022-08-30T07:09:35;60736.56;;;-144.06;43.40
11017;BME280;54687;50.800;6.772;2022-08-30T07:12:08;60692.56;;;-144.06;42.90
11017;BME280;54687;50.800;6.772;2022-08-30T07:14:35;60711.41;;;-144.06;42.55
11017;BME280;54687;50.800;6.772;2022-08-30T07:17:02;60652.72;;;-144.06;42.28
11017;BME280;54687;50.800;6.772;2022-08-30T07:19:49;60669.50;;;-144.06;41.92
11017;BME280;54687;50.800;6.772;2022-08-30T07:22:15;60682.06;;;-144.06;41.86
11017;BME280;54687;50.800;6.772;2022-08-30T07:24:43;60682.06;;;-144.06;41.67
11017;BME280;54687;50.800;6.772;2022-08-30T07:27:10;60686.25;;;-144.06;41.76
11017;BME280;54687;50.800;6.772;2022-08-30T07:29:36;60661.13;;;-144.06;41.85
11017;BME280;54687;50.800;6.772;2022-08-30T07:32:03;60648.53;;;-144.06;41.58
11017;BME280;54687;50.800;6.772;2022-08-30T07:34:30;60652.72;;;-144.06;41.44
11017;BME280;54687;50.800;6.772;2022-08-30T07:36:57;60667.41;;;-144.06;41.46
11017;BME280;54687;50.800;6.772;2022-08-30T07:39:23;60644.34;;;-144.06;41.58
11017;BME280;54687;50.800;6.772;2022-08-30T07:41:52;60642.25;;;-144.06;41.69
11017;BME280;54687;50.800;6.772;2022-08-30T07:44:19;60623.38;;;-144.06;41.42
11017;BME280;54687;50.800;6.772;2022-08-30T07:46:46;60629.69;;;-144.06;41.21
11017;BME280;54687;50.800;6.772;2022-08-30T07:49:12;60619.19;;;-144.06;41.21
11017;BME280;54687;50.800;6.772;2022-08-30T07:51:39;60661.13;;;-144.06;41.13
11017;BME280;54687;50.800;6.772;2022-08-30T07:54:06;60640.16;;;-144.06;41.21
11017;BME280;54687;50.800;6.772;2022-08-30T07:56:33;60623.38;;;-144.06;41.22
11017;BME280;54687;50.800;6.772;2022-08-30T07:59:01;60656.91;;;-144.06;41.16
11017;BME280;54687;50.800;6.772;2022-08-30T08:01:28;60648.53;;;-144.06;40.81
11017;BME280;54687;50.800;6.772;2022-08-30T08:03:56;60602.44;;;-144.06;40.99
11017;BME280;54687;50.800;6.772;2022-08-30T08:06:23;60640.16;;;-144.06;40.96
11017;BME280;54687;50.800;6.772;2022-08-30T08:08:52;60661.13;;;-144.06;41.13
11017;BME280;54687;50.800;6.772;2022-08-30T08:11:23;60638.06;;;-144.06;40.94
11017;BME280;54687;50.800;6.772;2022-08-30T08:13:50;60623.38;;;-144.06;40.84
11017;BME280;54687;50.800;6.772;2022-08-30T08:16:20;60627.56;;;-144.06;41.09
11017;BME280;54687;50.800;6.772;2022-08-30T08:18:47;60644.34;;;-144.06;40.72
11017;BME280;54687;50.800;6.772;2022-08-30T08:21:14;60606.63;;;-144.06;40.77
11017;BME280;54687;50.800;6.772;2022-08-30T08:23:41;60635.97;;;-144.06;40.51
11017;BME280;54687;50.800;6.772;2022-08-30T08:26:07;60623.38;;;-144.06;40.68
11017;BME280;54687;50.800;6.772;2022-08-30T08:28:34;60606.63;;;-144.06;40.32
11017;BME280;54687;50.800;6.772;2022-08-30T08:31:00;60610.81;;;-144.06;40.09
11017;BME280;54687;50.800;6.772;2022-08-30T08:33:29;60589.84;;;-144.06;40.06
11017;BME280;54687;50.800;6.772;2022-08-30T08:35:55;60585.66;;;-144.06;40.04
11017;BME280;54687;50.800;6.772;2022-08-30T08:38:22;60608.72;;;-144.06;39.70
11017;BME280;54687;50.800;6.772;2022-08-30T08:40:56;60615.00;;;-144.06;39.72
11017;BME280;54687;50.800;6.772;2022-08-30T08:43:25;60575.19;;;-144.06;39.73
11017;BME280;54687;50.800;6.772;2022-08-30T08:45:55;60615.00;;;-144.06;39.46
11017;BME280;54687;50.800;6.772;2022-08-30T08:48:32;60612.91;;;-144.06;39.37
11017;BME280;54687;50.800;6.772;2022-08-30T08:50:59;60581.47;;;-144.06;39.02
11017;BME280;54687;50.800;6.772;2022-08-30T08:53:49;60571.00;;;-144.06;39.54
11017;BME280;54687;50.800;6.772;2022-08-30T08:56:19;60600.34;;;-144.06;39.14
11017;BME280;54687;50.800;6.772;2022-08-30T08:58:49;60623.38;;;-144.06;39.27
11017;BME280;54687;50.800;6.772;2022-08-30T09:01:18;60644.34;;;-144.06;39.46
11017;BME280;54687;50.800;6.772;2022-08-30T09:03:48;60598.22;;;-144.06;39.32
11017;BME280;54687;50.800;6.772;2022-08-30T09:06:22;60715.59;;;-144.06;39.33
11017;BME280;54687;50.800;6.772;2022-08-30T09:08:49;60608.72;;;-144.06;39.49
11017;BME280;54687;50.800;6.772;2022-08-30T09:11:25;60610.81;;;-144.06;39.34
11017;BME280;54687;50.800;6.772;2022-08-30T09:13:53;60619.19;;;-144.06;39.76
11017;BME280;54687;50.800;6.772;2022-08-30T09:16:47;60656.91;;;-144.06;39.49
11017;BME280;54687;50.800;6.772;2022-08-30T09:19:33;60587.75;;;-144.06;39.19
11017;BME280;54687;50.800;6.772;2022-08-30T09:22:03;60568.88;;;-144.06;39.15
11017;BME280;54687;50.800;6.772;2022-08-30T09:24:37;60564.69;;;-144.06;38.74
11017;BME280;54687;50.800;6.772;2022-08-30T09:27:17;60591.94;;;-144.06;38.41
11017;BME280;54687;50.800;6.772;2022-08-30T09:29:51;60650.63;;;-144.06;37.97
11017;BME280;54687;50.800;6.772;2022-08-30T09:32:30;60581.47;;;-144.06;37.74
11017;BME280;54687;50.800;6.772;2022-08-30T09:34:59;60581.47;;;-144.06;38.00
11017;BME280;54687;50.800;6.772;2022-08-30T09:37:38;60577.28;;;-144.06;37.55
11017;BME280;54687;50.800;6.772;2022-08-30T09:40:12;60596.13;;;-144.06;37.51
11017;BME280;54687;50.800;6.772;2022-08-30T09:42:39;60537.44;;;-144.06;37.41
11017;BME280;54687;50.800;6.772;2022-08-30T09:45:17;60541.66;;;-144.06;37.65
11017;BME280;54687;50.800;6.772;2022-08-30T09:47:44;60564.69;;;-144.06;37.38
11017;BME280;54687;50.800;6.772;2022-08-30T09:50:14;60568.88;;;-144.06;37.28
11017;BME280;54687;50.800;6.772;2022-08-30T09:52:48;60568.88;;;-144.06;37.02
11017;BME280;54687;50.800;6.772;2022-08-30T09:55:26;60497.63;;;-144.06;36.79
11017;BME280;54687;50.800;6.772;2022-08-30T09:58:03;60539.53;;;-144.06;36.52
11017;BME280;54687;50.800;6.772;2022-08-30T10:00:38;60550.03;;;-144.06;36.15
11017;BME280;54687;50.800;6.772;2022-08-30T10:03:15;60520.69;;;-144.06;35.73
11017;BME280;54687;50.800;6.772;2022-08-30T10:05:54;60518.59;;;-144.06;35.79
11017;BME280;54687;50.800;6.772;2022-08-30T10:08:30;60581.47;;;-144.06;35.03
11017;BME280;54687;50.800;6.772;2022-08-30T10:11:04;60543.75;;;-144.06;35.70
11017;BME280;54687;50.800;6.772;2022-08-30T10:13:50;60539.53;;;-144.06;35.13
11017;BME280;54687;50.800;6.772;2022-08-30T10:16:33;60539.53;;;-144.06;34.45
11017;BME280;54687;50.800;6.772;2022-08-30T10:19:11;60506.00;;;-144.06;34.81
11017;BME280;54687;50.800;6.772;2022-08-30T10:21:48;60539.53;;;-144.06;34.56
11017;BME280;54687;50.800;6.772;2022-08-30T10:24:20;60516.50;;;-144.06;34.68
11017;BME280;54687;50.800;6.772;2022-08-30T10:26:53;60516.50;;;-144.06;34.42
11017;BME280;54687;50.800;6.772;2022-08-30T10:29:27;60468.28;;;-144.06;33.60
11017;BME280;54687;50.800;6.772;2022-08-30T10:31:59;60485.06;;;-144.06;33.82
11017;BME280;54687;50.800;6.772;2022-08-30T10:34:30;60520.69;;;-144.06;33.95
11017;BME280;54687;50.800;6.772;2022-08-30T10:37:03;60493.44;;;-144.06;33.29
11017;BME280;54687;50.800;6.772;2022-08-30T10:39:37;60480.88;;;-144.06;33.48
11017;BME280;54687;50.800;6.772;2022-08-30T10:42:11;60468.28;;;-144.06;33.37
11017;BME280;54687;50.800;6.772;2022-08-30T10:44:43;60476.66;;;-144.06;33.70
11017;BME280;54687;50.800;6.772;2022-08-30T10:47:20;60478.78;;;-144.06;33.10
11017;BME280;54687;50.800;6.772;2022-08-30T10:49:53;60506.00;;;-144.06;32.95
11017;BME280;54687;50.800;6.772;2022-08-30T10:52:28;60480.88;;;-144.06;32.74
11017;BME280;54687;50.800;6.772;2022-08-30T10:54:58;60441.03;;;-144.06;32.90
11017;BME280;54687;50.800;6.772;2022-08-30T10:57:26;60474.56;;;-144.06;33.26
11017;BME280;54687;50.800;6.772;2022-08-30T10:59:56;60401.22;;;-144.06;33.19
11017;BME280;54687;50.800;6.772;2022-08-30T11:02:47;60443.13;;;-144.06;32.18
11017;BME280;54687;50.800;6.772;2022-08-30T11:05:34;60426.38;;;-144.06;32.09
11017;BME280;54687;50.800;6.772;2022-08-30T11:08:13;60413.78;;;-144.06;31.99
11017;BME280;54687;50.800;6.772;2022-08-30T11:10:50;60413.78;;;-144.06;31.82
11017;BME280;54687;50.800;6.772;2022-08-30T11:13:23;60453.63;;;-144.06;31.58
11017;BME280;54687;50.800;6.772;2022-08-30T11:15:55;60413.78;;;-144.06;31.98
11017;BME280;54687;50.800;6.772;2022-08-30T11:18:24;60434.75;;;-144.06;31.24
11017;BME280;54687;50.800;6.772;2022-08-30T11:21:16;60451.53;;;-144.06;30.83
11017;BME280;54687;50.800;6.772;2022-08-30T11:23:59;60384.47;;;-144.06;30.66
11017;BME280;54687;50.800;6.772;2022-08-30T11:26:51;60388.66;;;-144.06;30.82
11017;BME280;54687;50.800;6.772;2022-08-30T11:29:48;60371.88;;;-144.06;30.57
11017;BME280;54687;50.800;6.772;2022-08-30T11:34:57;60357.22;;;-144.06;30.89
11017;BME280;54687;50.800;6.772;2022-08-30T11:37:37;60378.16;;;-144.06;30.61
11017;BME280;54687;50.800;6.772;2022-08-30T11:40:13;60371.88;;;-144.06;30.50
11017;BME280;54687;50.800;6.772;2022-08-30T11:46:17;60336.25;;;-144.06;29.93
11017;BME280;54687;50.800;6.772;2022-08-30T11:48:48;60325.78;;;-144.06;30.43
11017;BME280;54687;50.800;6.772;2022-08-30T11:54:23;60355.13;;;-144.06;30.19
11017;BME280;54687;50.800;6.772;2022-08-30T11:57:01;60329.97;;;-144.06;30.37
11017;BME280;54687;50.800;6.772;2022-08-30T11:59:38;60336.25;;;-144.06;30.28
11017;BME280;54687;50.800;6.772;2022-08-30T12:02:47;60346.72;;;-144.06;29.91
11017;BME280;54687;50.800;6.772;2022-08-30T12:05:54;60390.75;;;-144.06;30.12
11017;BME280;54687;50.800;6.772;2022-08-30T12:08:45;60365.59;;;-144.06;30.56
11017;BME280;54687;50.800;6.772;2022-08-30T12:14:41;60369.78;;;-144.06;30.32
11017;BME280;54687;50.800;6.772;2022-08-30T12:17:14;60363.50;;;-144.06;30.48
11017;BME280;54687;50.800;6.772;2022-08-30T12:20:03;60371.88;;;-144.06;30.59
11017;BME280;54687;50.800;6.772;2022-08-30T12:22:30;60367.69;;;-144.06;31.01
11017;BME280;54687;50.800;6.772;2022-08-30T12:25:13;60392.84;;;-144.06;30.44
11017;BME280;54687;50.800;6.772;2022-08-30T12:27:41;60371.88;;;-144.06;31.12
11017;BME280;54687;50.800;6.772;2022-08-30T12:30:09;60361.41;;;-144.06;31.03
11017;BME280;54687;50.800;6.772;2022-08-30T12:32:42;60367.69;;;-144.06;30.72
11017;BME280;54687;50.800;6.772;2022-08-30T12:35:19;60329.97;;;-144.06;31.07
11017;BME280;54687;50.800;6.772;2022-08-30T12:37:55;60359.31;;;-144.06;31.08
11017;BME280;54687;50.800;6.772;2022-08-30T12:40:24;60380.25;;;-144.06;31.48
11017;BME280;54687;50.800;6.772;2022-08-30T12:42:53;60369.78;;;-144.06;31.05
11017;BME280;54687;50.800;6.772;2022-08-30T12:45:23;60401.22;;;-144.06;31.54
11017;BME280;54687;50.800;6.772;2022-08-30T12:47:55;60403.31;;;-144.06;31.61
11017;BME280;54687;50.800;6.772;2022-08-30T12:50:26;60392.84;;;-144.06;31.33
11017;BME280;54687;50.800;6.772;2022-08-30T12:52:59;60388.66;;;-144.06;31.33
11017;BME280;54687;50.800;6.772;2022-08-30T12:55:29;60438.94;;;-144.06;31.67
11017;BME280;54687;50.800;6.772;2022-08-30T12:57:59;60378.16;;;-144.06;31.57
11017;BME280;54687;50.800;6.772;2022-08-30T13:00:29;60399.13;;;-144.06;31.56
11017;BME280;54687;50.800;6.772;2022-08-30T13:02:58;60359.31;;;-144.06;31.64
11017;BME280;54687;50.800;6.772;2022-08-30T13:05:34;60436.84;;;-144.06;31.38
11017;BME280;54687;50.800;6.772;2022-08-30T13:08:13;60405.41;;;-144.06;31.35